Time;durP1;ratioP1;P1;durP2;ratioP2;P2;SDS_P1;SDS_P2;PMS_P1;PMS_P2;Temp;Humidity;BMP_temperature;BMP_pressure;BME280_temperature;BME280_humidity;BME280_pressure;Samples;Min_cycle;Max_cycle;Signal;HPM_P1;HPM_P2
2023/12/11 00:01:45;;;;;;;6.83;1.53;;;10.20;99.90;;;;;;5052463;28;20445;-52
2023/12/11 00:04:13;;;;;;;14.40;1.90;;;10.20;99.90;;;;;;5052548;28;20028;-52
2023/12/11 00:06:39;;;;;;;9.43;1.60;;;10.20;99.90;;;;;;5052502;28;20037;-51
2023/12/11 00:09:05;;;;;;;15.00;1.70;;;10.20;99.90;;;;;;5052474;28;20031;-54
2023/12/11 00:11:30;;;;;;;11.37;2.07;;;10.20;99.90;;;;;;5052693;28;20029;-52
2023/12/11 00:13:56;;;;;;;6.10;1.37;;;10.20;99.90;;;;;;5034437;28;20102;-50
2023/12/11 00:16:21;;;;;;;14.70;1.90;;;10.20;99.90;;;;;;5052423;28;20071;-51
2023/12/11 00:18:48;;;;;;;11.43;2.07;;;10.20;99.90;;;;;;5052167;28;20025;-54
2023/12/11 00:21:15;;;;;;;14.57;2.73;;;10.20;99.90;;;;;;5052147;28;20071;-55
2023/12/11 00:23:40;;;;;;;11.43;1.93;;;10.20;99.90;;;;;;5051964;28;20033;-53
2023/12/11 00:26:06;;;;;;;16.07;2.23;;;10.20;99.90;;;;;;5034231;28;20087;-54
2023/12/11 00:28:32;;;;;;;14.97;2.27;;;10.20;99.90;;;;;;5034126;28;20083;-50
2023/12/11 00:30:57;;;;;;;9.90;1.50;;;10.20;99.90;;;;;;5051957;28;20040;-53
2023/12/11 00:33:23;;;;;;;13.87;1.87;;;10.20;99.90;;;;;;5052071;28;20504;-52
2023/12/11 00:35:48;;;;;;;6.67;1.60;;;10.20;99.90;;;;;;5051843;28;20037;-55
2023/12/11 00:38:14;;;;;;;13.97;1.87;;;10.20;99.90;;;;;;5051920;28;20393;-55
2023/12/11 00:40:39;;;;;;;11.13;1.77;;;10.20;99.90;;;;;;5051652;28;20029;-55
2023/12/11 00:43:05;;;;;;;9.73;2.33;;;10.20;99.90;;;;;;5051849;28;20469;-50
2023/12/11 00:45:31;;;;;;;15.83;2.10;;;10.20;99.90;;;;;;5051621;28;20083;-52
2023/12/11 00:47:56;;;;;;;12.77;2.33;;;10.20;99.90;;;;;;5051862;28;20036;-54
2023/12/11 00:50:22;;;;;;;12.30;2.13;;;10.20;99.90;;;;;;5051644;28;20029;-55
2023/12/11 00:52:48;;;;;;;10.23;2.37;;;10.30;99.90;;;;;;5051897;28;20039;-53
2023/12/11 00:55:13;;;;;;;18.27;2.13;;;10.30;99.90;;;;;;5051700;28;20032;-52
2023/12/11 00:57:39;;;;;;;11.93;2.37;;;10.30;99.90;;;;;;5051421;28;20048;-53
2023/12/11 01:00:05;;;;;;;12.80;2.40;;;10.30;99.90;;;;;;5051444;28;20409;-54
2023/12/11 01:02:31;;;;;;;15.00;2.63;;;10.30;99.90;;;;;;5051655;28;20028;-55
2023/12/11 01:04:57;;;;;;;8.03;1.57;;;10.40;99.90;;;;;;5051927;28;20424;-54
2023/12/11 01:07:23;;;;;;;12.73;2.03;;;10.40;99.90;;;;;;5051512;28;20037;-54
2023/12/11 01:09:48;;;;;;;14.00;2.27;;;10.40;99.90;;;;;;5051372;28;20095;-54
2023/12/11 01:12:15;;;;;;;17.93;2.80;;;10.40;99.90;;;;;;5051531;28;20029;-54
2023/12/11 01:14:40;;;;;;;11.27;1.87;;;10.40;99.90;;;;;;5051433;28;20060;-52
2023/12/11 01:17:06;;;;;;;19.40;2.63;;;10.40;99.90;;;;;;5051396;28;20087;-53
2023/12/11 01:19:31;;;;;;;15.37;2.67;;;10.40;99.90;;;;;;5051388;28;20358;-54
2023/12/11 01:21:57;;;;;;;14.27;1.93;;;10.50;99.90;;;;;;5051554;28;20074;-53
2023/12/11 01:24:22;;;;;;;12.53;2.43;;;10.50;99.90;;;;;;5051432;28;20029;-53
2023/12/11 01:26:48;;;;;;;18.27;1.80;;;10.50;99.90;;;;;;5051325;28;20398;-54
2023/12/11 01:29:14;;;;;;;15.50;2.63;;;10.40;99.90;;;;;;5051212;28;20021;-50
2023/12/11 01:31:39;;;;;;;15.57;2.33;;;10.40;99.90;;;;;;5051397;28;20115;-54
2023/12/11 01:34:05;;;;;;;15.53;2.60;;;10.40;99.90;;;;;;5051347;28;20036;-55
2023/12/11 01:36:30;;;;;;;15.47;2.17;;;10.40;99.90;;;;;;5053246;28;20044;-52
2023/12/11 01:38:56;;;;;;;9.57;1.80;;;10.40;99.90;;;;;;5055018;28;20021;-56
2023/12/11 01:41:21;;;;;;;14.23;2.00;;;10.30;99.90;;;;;;5055286;28;20438;-51
2023/12/11 01:43:52;;;;;;;12.30;2.03;;;10.20;99.90;;;;;;5055594;28;20108;-52
2023/12/11 01:46:18;;;;;;;12.90;1.97;;;10.30;99.90;;;;;;5055012;28;20025;-53
2023/12/11 01:48:45;;;;;;;14.60;1.90;;;10.30;99.90;;;;;;5055043;28;20047;-53
2023/12/11 01:51:12;;;;;;;17.20;2.70;;;10.30;99.90;;;;;;5055053;28;20029;-50
2023/12/11 01:53:38;;;;;;;15.63;2.63;;;10.30;99.90;;;;;;5055017;28;20032;-51
2023/12/11 01:56:04;;;;;;;23.17;2.57;;;10.30;99.90;;;;;;5054776;28;20052;-49
2023/12/11 01:58:30;;;;;;;10.93;2.30;;;10.30;99.90;;;;;;5054859;28;20448;-55
2023/12/11 02:00:56;;;;;;;13.07;2.30;;;10.40;99.90;;;;;;5054786;28;20025;-50
2023/12/11 02:03:22;;;;;;;14.40;1.70;;;10.40;99.90;;;;;;5054743;28;20540;-51
2023/12/11 02:05:49;;;;;;;13.73;2.27;;;10.40;99.90;;;;;;5054631;28;20045;-54
2023/12/11 02:08:16;;;;;;;13.60;2.10;;;10.40;99.90;;;;;;5054706;28;20550;-50
2023/12/11 02:10:42;;;;;;;13.57;2.10;;;10.40;99.90;;;;;;5053399;28;20401;-53
2023/12/11 02:13:08;;;;;;;14.43;1.87;;;10.40;99.90;;;;;;5053357;28;20033;-51
2023/12/11 02:15:51;;;;;;;13.40;2.17;;;10.40;99.90;;;;;;5053986;28;20037;-55
2023/12/11 02:18:17;;;;;;;12.67;2.63;;;10.40;99.90;;;;;;5054413;28;20386;-56
2023/12/11 02:20:44;;;;;;;14.47;1.90;;;10.40;99.90;;;;;;5053976;28;20029;-51
2023/12/11 02:23:57;;;;;;;14.93;3.23;;;10.40;99.90;;;;;;5054193;28;20108;-51
2023/12/11 02:26:23;;;;;;;16.67;2.37;;;10.40;99.90;;;;;;5009314;28;20041;-54
2023/12/11 02:28:49;;;;;;;17.97;3.40;;;10.40;99.90;;;;;;5054191;28;20031;-54
2023/12/11 02:31:14;;;;;;;16.47;2.97;;;10.40;99.90;;;;;;5054193;28;20351;-50
2023/12/11 02:33:40;;;;;;;13.33;2.70;;;10.50;99.90;;;;;;5054158;28;20025;-54
2023/12/11 02:36:06;;;;;;;14.87;2.47;;;10.50;99.90;;;;;;5054041;28;20076;-52
2023/12/11 02:38:57;;;;;;;16.93;2.30;;;10.50;99.90;;;;;;5055169;28;20033;-52
2023/12/11 02:41:23;;;;;;;17.77;2.87;;;10.50;99.90;;;;;;5012567;28;20049;-54
2023/12/11 02:43:48;;;;;;;15.73;2.93;;;10.50;99.90;;;;;;5014260;28;20079;-52
2023/12/11 02:46:14;;;;;;;20.00;3.03;;;10.50;99.90;;;;;;5014101;28;20494;-49
2023/12/11 02:48:39;;;;;;;15.50;2.97;;;10.50;99.90;;;;;;5014198;28;20037;-51
2023/12/11 02:51:05;;;;;;;18.87;2.63;;;10.40;99.90;;;;;;5014296;28;20018;-50
2023/12/11 02:53:31;;;;;;;26.30;3.93;;;10.50;99.90;;;;;;5014102;28;20112;-49
2023/12/11 02:55:56;;;;;;;20.43;3.97;;;10.50;99.90;;;;;;5013935;28;20038;-52
2023/12/11 02:58:22;;;;;;;20.13;4.33;;;10.50;99.90;;;;;;5013938;28;20032;-53
2023/12/11 03:00:48;;;;;;;23.97;4.13;;;10.50;99.90;;;;;;5013891;28;20060;-50
2023/12/11 03:03:13;;;;;;;15.13;3.70;;;10.40;99.90;;;;;;5013978;28;20146;-48
2023/12/11 03:05:39;;;;;;;15.37;3.57;;;10.40;99.90;;;;;;5013860;28;20026;-48
2023/12/11 03:08:05;;;;;;;21.03;3.87;;;10.40;99.90;;;;;;5013853;28;20117;-49
2023/12/11 03:10:34;;;;;;;12.97;2.87;;;10.40;99.90;;;;;;5013663;28;20116;-52
2023/12/11 03:13:00;;;;;;;14.15;2.88;;;10.40;99.90;;;;;;5013675;28;20026;-51
2023/12/11 03:15:25;;;;;;;14.73;3.27;;;10.30;99.90;;;;;;5013553;28;20048;-49
2023/12/11 03:17:51;;;;;;;12.70;3.00;;;10.30;99.90;;;;;;5014076;28;20036;-49
2023/12/11 03:20:17;;;;;;;13.77;2.83;;;10.30;99.90;;;;;;5013596;28;20073;-50
2023/12/11 03:22:42;;;;;;;13.30;2.93;;;10.30;99.90;;;;;;5013624;28;20026;-53
2023/12/11 03:25:08;;;;;;;22.63;3.57;;;10.40;99.90;;;;;;5013576;28;20037;-53
2023/12/11 03:27:34;;;;;;;11.97;3.13;;;10.40;99.90;;;;;;5013241;28;20130;-48
2023/12/11 03:29:59;;;;;;;15.27;2.90;;;10.50;99.90;;;;;;5013286;28;20076;-49
2023/12/11 03:32:25;;;;;;;7.27;1.83;;;10.50;99.90;;;;;;5013438;28;20383;-50
2023/12/11 03:34:51;;;;;;;6.67;1.30;;;10.50;99.90;;;;;;5013345;28;20395;-51
2023/12/11 03:37:16;;;;;;;8.47;1.00;;;10.40;99.90;;;;;;5013230;28;20106;-51
2023/12/11 03:39:42;;;;;;;16.00;2.17;;;10.30;99.90;;;;;;5013037;28;20112;-51
2023/12/11 03:42:08;;;;;;;12.73;1.50;;;10.10;99.90;;;;;;5013122;28;20037;-50
2023/12/11 03:44:33;;;;;;;15.93;1.70;;;10.10;99.90;;;;;;5013174;28;20065;-52
2023/12/11 03:46:59;;;;;;;10.40;2.10;;;10.00;99.90;;;;;;4995718;28;20033;-50
2023/12/11 03:49:27;;;;;;;17.00;1.97;;;9.90;99.90;;;;;;5013046;28;20048;-53
2023/12/11 03:51:52;;;;;;;11.70;2.07;;;9.90;99.90;;;;;;5012981;28;20479;-53
2023/12/11 03:54:18;;;;;;;15.27;2.43;;;9.90;99.90;;;;;;5013009;28;20080;-49
2023/12/11 03:56:44;;;;;;;16.70;2.50;;;9.80;99.90;;;;;;5012723;28;20054;-50
2023/12/11 03:59:11;;;;;;;14.73;3.00;;;9.80;99.90;;;;;;5012319;28;20490;-49
2023/12/11 04:01:37;;;;;;;22.60;4.23;;;9.80;99.90;;;;;;5012981;28;20040;-49
2023/12/11 04:04:03;;;;;;;13.70;2.63;;;9.90;99.90;;;;;;5028105;28;20034;-50
2023/12/11 04:06:28;;;;;;;13.87;2.87;;;10.10;99.90;;;;;;5032718;28;20039;-49
2023/12/11 04:08:54;;;;;;;15.13;3.17;;;10.00;99.90;;;;;;5032692;28;20095;-51
2023/12/11 04:11:19;;;;;;;16.73;3.00;;;10.10;99.90;;;;;;5028954;28;20036;-54
2023/12/11 04:13:45;;;;;;;16.27;2.50;;;10.10;99.90;;;;;;5008367;28;20029;-50
2023/12/11 04:16:11;;;;;;;18.50;2.67;;;10.00;99.90;;;;;;5003476;28;20038;-50
2023/12/11 04:18:37;;;;;;;12.00;2.03;;;10.10;99.90;;;;;;5007750;28;20367;-51
2023/12/11 04:21:04;;;;;;;12.57;3.20;;;10.20;99.90;;;;;;4999570;28;20022;-49
2023/12/11 04:23:29;;;;;;;17.37;2.90;;;10.40;99.90;;;;;;5009124;28;20026;-50
2023/12/11 04:25:58;;;;;;;14.03;2.13;;;10.40;99.90;;;;;;5010747;28;20501;-50
2023/12/11 04:28:25;;;;;;;4.72;1.15;;;10.40;99.90;;;;;;4992870;28;20026;-52
2023/12/11 04:30:51;;;;;;;10.97;2.10;;;10.40;99.90;;;;;;5010555;28;20044;-51
2023/12/11 04:33:16;;;;;;;4.63;0.73;;;10.40;99.90;;;;;;4996416;28;20038;-52
2023/12/11 04:35:42;;;;;;;9.00;1.50;;;10.40;99.90;;;;;;5002980;28;20485;-52
2023/12/11 04:38:08;;;;;;;9.73;1.43;;;10.30;99.90;;;;;;4999246;28;20022;-50
2023/12/11 04:40:34;;;;;;;10.83;1.30;;;10.30;99.90;;;;;;5002190;28;20030;-54
2023/12/11 04:43:00;;;;;;;10.97;1.67;;;10.30;99.90;;;;;;5002614;28;20347;-52
2023/12/11 04:45:26;;;;;;;16.80;2.23;;;10.30;99.90;;;;;;5005105;28;20061;-50
2023/12/11 04:47:51;;;;;;;13.90;2.63;;;10.30;99.90;;;;;;5006674;28;20038;-50
2023/12/11 04:50:17;;;;;;;16.90;2.90;;;10.20;99.90;;;;;;4988924;28;20026;-50
2023/12/11 04:52:42;;;;;;;12.07;3.10;;;10.20;99.90;;;;;;5005434;28;20026;-51
2023/12/11 04:55:08;;;;;;;15.63;2.93;;;10.20;99.90;;;;;;5002580;28;20068;-49
2023/12/11 04:57:34;;;;;;;16.03;3.60;;;10.20;99.90;;;;;;4989454;28;20030;-49
2023/12/11 04:59:59;;;;;;;12.07;3.80;;;10.20;99.90;;;;;;5004148;28;20116;-53
2023/12/11 05:02:25;;;;;;;12.80;2.00;;;10.20;99.90;;;;;;5002516;28;20058;-50
2023/12/11 05:04:50;;;;;;;10.73;1.60;;;10.10;99.90;;;;;;5016074;28;20026;-49
2023/12/11 05:07:16;;;;;;;10.33;2.10;;;10.10;99.90;;;;;;5002547;28;20470;-52
2023/12/11 05:09:42;;;;;;;11.13;1.70;;;10.10;99.90;;;;;;5001820;28;20029;-52
2023/12/11 05:12:07;;;;;;;11.40;2.80;;;10.00;99.90;;;;;;5013762;28;20393;-49
2023/12/11 05:14:33;;;;;;;10.73;2.13;;;10.00;99.90;;;;;;5013750;28;20044;-54
2023/12/11 05:16:59;;;;;;;12.27;2.17;;;9.90;99.90;;;;;;4996733;28;20033;-50
2023/12/11 05:19:24;;;;;;;5.67;1.00;;;9.90;99.90;;;;;;4988291;28;20045;-50
2023/12/11 05:21:51;;;;;;;5.17;1.07;;;9.80;99.90;;;;;;4998543;28;20022;-50
2023/12/11 05:24:16;;;;;;;8.70;1.63;;;9.80;99.90;;;;;;5014077;28;20437;-51
2023/12/11 05:26:42;;;;;;;10.30;1.87;;;9.80;99.90;;;;;;5006128;28;20033;-50
2023/12/11 05:29:07;;;;;;;7.73;1.40;;;9.80;99.90;;;;;;5013525;28;20026;-49
2023/12/11 05:31:33;;;;;;;10.67;1.77;;;9.70;99.90;;;;;;5022118;28;20072;-52
2023/12/11 05:33:59;;;;;;;6.57;1.47;;;9.70;99.90;;;;;;5014290;28;20054;-49
2023/12/11 05:36:24;;;;;;;9.43;1.33;;;9.70;99.90;;;;;;5014284;28;20084;-54
2023/12/11 05:38:50;;;;;;;6.70;1.23;;;9.70;99.90;;;;;;5005558;28;20026;-51
2023/12/11 05:41:16;;;;;;;10.07;1.80;;;9.70;99.90;;;;;;5013912;28;20026;-53
2023/12/11 05:43:42;;;;;;;8.57;1.30;;;9.70;99.90;;;;;;5013606;28;20113;-50
2023/12/11 05:46:08;;;;;;;16.13;1.83;;;9.80;99.90;;;;;;4999916;28;20113;-52
2023/12/11 05:48:33;;;;;;;14.23;2.60;;;9.70;99.90;;;;;;5007209;28;20029;-53
2023/12/11 05:50:59;;;;;;;14.27;4.27;;;9.80;99.90;;;;;;5006395;28;20022;-54
2023/12/11 05:53:25;;;;;;;16.77;3.77;;;9.80;99.90;;;;;;4999916;28;20379;-50
2023/12/11 05:55:50;;;;;;;6.00;1.83;;;9.90;99.90;;;;;;5004747;28;20363;-52
2023/12/11 05:58:16;;;;;;;7.07;1.40;;;10.00;99.90;;;;;;4997658;28;20033;-49
2023/12/11 06:00:42;;;;;;;7.67;1.73;;;10.00;99.90;;;;;;5004637;28;20029;-53
2023/12/11 06:03:07;;;;;;;7.57;1.10;;;10.00;99.90;;;;;;4986288;28;20370;-51
2023/12/11 06:05:33;;;;;;;7.40;1.80;;;10.10;99.90;;;;;;5003170;28;20164;-54
2023/12/11 06:07:59;;;;;;;12.57;2.00;;;10.10;99.90;;;;;;5007940;28;20596;-50
2023/12/11 06:10:24;;;;;;;8.50;1.57;;;10.10;99.90;;;;;;5005931;28;20428;-54
2023/12/11 06:12:50;;;;;;;7.83;1.50;;;10.10;99.90;;;;;;5000572;28;20580;-53
2023/12/11 06:15:15;;;;;;;13.13;1.37;;;10.10;99.90;;;;;;4999520;28;20030;-53
2023/12/11 06:17:41;;;;;;;7.97;1.67;;;10.20;99.90;;;;;;4994374;28;20573;-52
2023/12/11 06:20:07;;;;;;;8.63;2.10;;;10.20;99.90;;;;;;5013146;28;20111;-51
2023/12/11 06:22:33;;;;;;;9.90;1.83;;;10.20;99.90;;;;;;5004672;28;20022;-51
2023/12/11 06:24:58;;;;;;;6.73;1.73;;;10.20;99.90;;;;;;5013043;28;20037;-52
2023/12/11 06:27:27;;;;;;;12.87;1.90;;;10.30;99.90;;;;;;5012788;28;20108;-53
2023/12/11 06:29:53;;;;;;;14.60;1.60;;;10.30;99.90;;;;;;5012186;28;20034;-49
2023/12/11 06:32:19;;;;;;;7.73;1.63;;;10.30;99.90;;;;;;5011990;28;20460;-50
2023/12/11 06:34:44;;;;;;;13.60;1.80;;;10.30;99.90;;;;;;5001438;28;20038;-51
2023/12/11 06:37:10;;;;;;;7.33;1.57;;;10.20;99.90;;;;;;5005304;28;20026;-49
2023/12/11 06:39:36;;;;;;;10.80;1.43;;;10.20;99.90;;;;;;5010560;28;20117;-53
2023/12/11 06:42:02;;;;;;;6.93;1.13;;;10.20;99.90;;;;;;5011048;28;20131;-52
2023/12/11 06:44:28;;;;;;;7.13;1.43;;;10.20;99.90;;;;;;5003248;28;20046;-50
2023/12/11 06:46:53;;;;;;;9.57;1.50;;;10.20;99.90;;;;;;5012162;28;20030;-51
2023/12/11 06:49:19;;;;;;;4.57;1.30;;;10.30;99.90;;;;;;5005745;28;20058;-52
2023/12/11 06:51:44;;;;;;;10.30;1.63;;;10.20;99.90;;;;;;5000972;28;20041;-52
2023/12/11 06:54:11;;;;;;;9.77;2.00;;;10.20;99.90;;;;;;4997737;28;20029;-51
2023/12/11 06:56:37;;;;;;;8.93;1.60;;;10.20;99.90;;;;;;5012558;28;20033;-50
2023/12/11 06:59:02;;;;;;;13.57;1.50;;;10.20;99.90;;;;;;5019622;28;20018;-54
2023/12/11 07:01:33;;;;;;;8.27;1.60;;;10.20;99.90;;;;;;5005025;28;20045;-50
2023/12/11 07:03:59;;;;;;;11.27;1.77;;;10.20;99.90;;;;;;5004351;28;20022;-51
2023/12/11 07:06:25;;;;;;;10.00;1.20;;;10.20;99.90;;;;;;4986261;28;20080;-53
2023/12/11 07:08:51;;;;;;;8.60;1.67;;;10.10;99.90;;;;;;5014440;28;20479;-50
2023/12/11 07:11:17;;;;;;;6.67;1.10;;;10.10;99.90;;;;;;5009734;28;20176;-52
2023/12/11 07:13:43;;;;;;;8.57;1.37;;;10.10;99.90;;;;;;5011828;28;20072;-50
2023/12/11 07:16:09;;;;;;;8.27;1.30;;;10.10;99.90;;;;;;5012091;28;20510;-49
2023/12/11 07:18:35;;;;;;;11.27;1.27;;;10.10;99.90;;;;;;5011710;28;20029;-53
2023/12/11 07:21:01;;;;;;;11.20;2.33;;;10.20;99.90;;;;;;5008335;28;20145;-51
2023/12/11 07:23:26;;;;;;;9.07;1.90;;;10.20;99.90;;;;;;4999358;28;20394;-52
2023/12/11 07:25:52;;;;;;;13.27;2.20;;;10.30;99.90;;;;;;5003831;28;20132;-52
2023/12/11 07:28:18;;;;;;;10.37;1.53;;;10.20;99.90;;;;;;5011864;28;20028;-50
2023/12/11 07:30:44;;;;;;;9.30;1.80;;;10.20;99.90;;;;;;5019981;28;20030;-50
2023/12/11 07:33:09;;;;;;;12.40;2.07;;;10.30;99.90;;;;;;5011281;28;20034;-53
2023/12/11 07:35:35;;;;;;;12.70;1.37;;;10.20;99.90;;;;;;4995079;28;20027;-52
2023/12/11 07:38:02;;;;;;;13.07;1.70;;;10.20;99.90;;;;;;4992133;28;20033;-52
2023/12/11 07:40:28;;;;;;;11.13;1.67;;;10.20;99.90;;;;;;5007511;28;20371;-55
2023/12/11 07:42:54;;;;;;;9.30;1.90;;;10.30;99.90;;;;;;4999015;28;20034;-52
2023/12/11 07:45:21;;;;;;;9.17;1.27;;;10.30;99.90;;;;;;5008624;28;20502;-50
2023/12/11 07:47:47;;;;;;;8.63;1.50;;;10.40;99.90;;;;;;5011366;28;20045;-49
2023/12/11 07:50:12;;;;;;;9.50;1.53;;;10.50;99.90;;;;;;5011446;28;20030;-54
2023/12/11 07:52:38;;;;;;;9.43;1.60;;;10.50;99.90;;;;;;5003315;28;20030;-50
2023/12/11 07:55:04;;;;;;;9.83;1.40;;;10.50;99.90;;;;;;5007987;28;20042;-50
2023/12/11 07:57:29;;;;;;;9.73;1.80;;;10.40;99.90;;;;;;4999147;28;20033;-53
2023/12/11 07:59:55;;;;;;;12.20;1.93;;;10.30;99.90;;;;;;5011354;28;20034;-56
2023/12/11 08:02:21;;;;;;;8.13;1.57;;;10.30;99.90;;;;;;5011663;28;20356;-51
2023/12/11 08:04:46;;;;;;;11.80;1.90;;;10.30;99.90;;;;;;5011217;28;20052;-55
2023/12/11 08:07:15;;;;;;;15.30;1.77;;;10.20;99.90;;;;;;5011227;28;20060;-52
2023/12/11 08:09:41;;;;;;;7.47;1.38;;;10.20;99.90;;;;;;5010858;28;20083;-54
2023/12/11 08:12:07;;;;;;;11.77;1.70;;;10.20;99.90;;;;;;5011266;28;20123;-54
2023/12/11 08:14:33;;;;;;;11.57;2.07;;;10.20;99.90;;;;;;5011087;28;20106;-50
2023/12/11 08:16:59;;;;;;;12.93;1.90;;;10.20;99.90;;;;;;5001736;28;20121;-53
2023/12/11 08:19:25;;;;;;;12.63;1.83;;;10.20;99.90;;;;;;4991930;28;20026;-52
2023/12/11 08:21:51;;;;;;;11.37;2.83;;;10.20;99.90;;;;;;5010170;28;20056;-55
2023/12/11 08:24:16;;;;;;;9.90;1.53;;;10.10;99.90;;;;;;5010705;28;20022;-51
2023/12/11 08:26:43;;;;;;;9.13;1.93;;;10.10;99.90;;;;;;5010843;28;20430;-56
2023/12/11 08:29:09;;;;;;;11.77;1.83;;;10.10;99.90;;;;;;5010688;28;20068;-55
2023/12/11 08:31:35;;;;;;;11.20;2.07;;;10.10;99.90;;;;;;5011122;28;20045;-53
2023/12/11 08:34:00;;;;;;;15.37;2.17;;;10.10;99.90;;;;;;5007862;28;20498;-51
2023/12/11 08:36:26;;;;;;;11.83;2.40;;;10.10;99.90;;;;;;5005455;28;20117;-55
2023/12/11 08:41:21;;;;;;;;;;;10.10;99.90;;;;;;5003556;28;20129;-56
2023/12/11 08:43:47;;;;;;;11.73;1.90;;;10.10;99.90;;;;;;4999745;28;19909;-53
2023/12/11 08:46:13;;;;;;;15.57;2.57;;;10.10;99.90;;;;;;5005813;28;20030;-53
2023/12/11 08:48:39;;;;;;;14.40;1.60;;;10.20;99.90;;;;;;5006491;28;20806;-52
2023/12/11 08:51:06;;;;;;;8.83;1.43;;;10.20;99.90;;;;;;5007092;28;20026;-55
2023/12/11 08:53:31;;;;;;;11.23;1.90;;;10.20;99.90;;;;;;4997711;28;20499;-53
2023/12/11 08:55:57;;;;;;;9.40;1.60;;;10.20;99.90;;;;;;5010305;28;20148;-56
2023/12/11 08:58:24;;;;;;;12.77;1.90;;;10.30;99.90;;;;;;5009938;28;20100;-54
2023/12/11 09:00:49;;;;;;;9.20;1.00;;;10.30;99.90;;;;;;5010335;28;20483;-56
2023/12/11 09:03:15;;;;;;;10.30;1.80;;;10.30;99.90;;;;;;4992310;28;20136;-55
2023/12/11 09:05:41;;;;;;;12.40;1.83;;;10.30;99.90;;;;;;5002069;28;20041;-55
2023/12/11 09:08:07;;;;;;;6.07;1.30;;;10.30;99.90;;;;;;4998509;28;20439;-55
2023/12/11 09:10:34;;;;;;;10.17;1.70;;;10.20;99.90;;;;;;4990635;28;20337;-56
2023/12/11 09:13:00;;;;;;;7.13;2.60;;;10.20;99.90;;;;;;4988925;28;20034;-56
2023/12/11 09:15:25;;;;;;;7.87;1.87;;;10.20;99.90;;;;;;4990769;28;20026;-57
2023/12/11 09:17:51;;;;;;;6.10;1.20;;;10.10;99.90;;;;;;4999257;28;20057;-55
2023/12/11 09:20:17;;;;;;;11.10;1.60;;;10.10;99.90;;;;;;4997546;28;20058;-56
2023/12/11 09:22:43;;;;;;;11.77;2.70;;;10.00;99.90;;;;;;4990606;28;20162;-54
2023/12/11 09:25:09;;;;;;;7.13;1.50;;;10.00;99.90;;;;;;4990982;28;20023;-56
2023/12/11 09:27:34;;;;;;;11.90;2.17;;;10.00;99.90;;;;;;5005729;28;20029;-56
2023/12/11 09:30:00;;;;;;;8.97;1.60;;;10.00;99.90;;;;;;5007318;28;20391;-54
2023/12/11 09:32:27;;;;;;;7.77;1.80;;;10.00;99.90;;;;;;4996313;28;20033;-52
2023/12/11 09:34:53;;;;;;;7.83;1.83;;;10.00;99.90;;;;;;4993736;28;20500;-56
2023/12/11 09:37:19;;;;;;;9.47;1.97;;;10.00;99.90;;;;;;5010231;28;20093;-55
2023/12/11 09:39:47;;;;;;;13.87;1.77;;;10.00;99.90;;;;;;5009694;28;20446;-54
2023/12/11 09:42:14;;;;;;;8.17;1.60;;;10.00;99.90;;;;;;4998044;28;20037;-55
2023/12/11 09:44:45;;;;;;;6.57;1.93;;;10.00;99.90;;;;;;4990132;28;20042;-53
2023/12/11 09:47:23;;;;;;;9.67;1.53;;;10.00;99.90;;;;;;4990361;28;20022;-55
2023/12/11 09:50:19;;;;;;;7.47;1.83;;;10.00;99.90;;;;;;4998790;28;20086;-54
2023/12/11 09:52:45;;;;;;;9.73;1.57;;;10.00;99.90;;;;;;5009864;28;20137;-53
2023/12/11 09:55:11;;;;;;;13.60;1.40;;;10.00;99.90;;;;;;4999361;28;20042;-50
2023/12/11 09:57:39;;;;;;;12.20;2.57;;;10.10;99.90;;;;;;5007668;28;20044;-53
2023/12/11 10:00:07;;;;;;;10.95;2.22;;;10.10;99.90;;;;;;5013271;28;20044;-56
2023/12/11 10:02:33;;;;;;;6.60;1.30;;;10.20;99.90;;;;;;5005068;28;20021;-54
2023/12/11 10:05:04;;;;;;;11.20;1.60;;;10.20;99.90;;;;;;5003344;28;20101;-54
2023/12/11 10:07:32;;;;;;;6.20;1.37;;;10.20;99.90;;;;;;5001919;28;20030;-53
2023/12/11 10:09:58;;;;;;;17.73;6.57;;;10.20;99.90;;;;;;4993124;28;20497;-55
2023/12/11 10:12:24;;;;;;;20.17;6.97;;;10.20;99.90;;;;;;4993554;28;20380;-51
2023/12/11 10:15:01;;;;;;;24.13;7.50;;;10.20;99.90;;;;;;4983466;28;20153;-54
2023/12/11 10:17:27;;;;;;;15.77;4.20;;;10.10;99.90;;;;;;4993548;28;20722;-52
2023/12/11 10:19:53;;;;;;;11.37;1.70;;;10.10;99.90;;;;;;4993229;28;20030;-50
2023/12/11 10:22:26;;;;;;;12.80;1.73;;;10.00;99.90;;;;;;5005572;28;20406;-54
2023/12/11 10:24:52;;;;;;;10.07;1.73;;;10.00;99.90;;;;;;5012700;28;20137;-54
2023/12/11 10:27:25;;;;;;;8.67;1.37;;;10.00;99.90;;;;;;5001239;28;20064;-52
2023/12/11 10:30:07;;;;;;;7.83;1.83;;;10.00;99.90;;;;;;5001408;28;20044;-50
2023/12/11 10:32:33;;;;;;;6.37;1.30;;;9.90;99.90;;;;;;4993256;28;20062;-55
2023/12/11 10:34:59;;;;;;;5.83;1.60;;;9.90;99.90;;;;;;4994145;28;21079;-54
2023/12/11 10:37:32;;;;;;;9.37;1.50;;;10.00;99.90;;;;;;5010754;28;20026;-54
2023/12/11 10:39:58;;;;;;;12.90;1.60;;;10.10;99.90;;;;;;5008949;28;20026;-54
2023/12/11 10:42:25;;;;;;;8.43;1.70;;;10.40;99.90;;;;;;5011503;28;20018;-53
2023/12/11 10:44:51;;;;;;;6.43;1.47;;;10.50;99.90;;;;;;5008432;28;20459;-51
2023/12/11 10:47:18;;;;;;;6.30;1.17;;;10.60;99.90;;;;;;4997435;28;20045;-51
2023/12/11 10:49:44;;;;;;;7.57;0.97;;;10.70;99.90;;;;;;5000905;28;20459;-54
2023/12/11 10:52:10;;;;;;;3.73;1.10;;;10.70;99.90;;;;;;4984412;28;20036;-52
2023/12/11 10:54:43;;;;;;;7.60;1.40;;;10.60;99.90;;;;;;5007082;28;20558;-53
2023/12/11 10:57:13;;;;;;;5.87;1.57;;;10.50;99.90;;;;;;4996132;28;20095;-54
2023/12/11 10:59:40;;;;;;;5.67;1.40;;;10.50;99.90;;;;;;5012194;28;20030;-52
2023/12/11 11:02:07;;;;;;;5.73;0.97;;;10.50;99.90;;;;;;4994368;28;20132;-52
2023/12/11 11:04:36;;;;;;;10.57;1.80;;;10.50;99.90;;;;;;5012431;28;20170;-55
2023/12/11 11:07:02;;;;;;;3.25;1.05;;;10.40;99.90;;;;;;5003110;28;20428;-55
2023/12/11 11:09:49;;;;;;;5.77;1.37;;;10.50;99.90;;;;;;4992701;28;20062;-52
2023/12/11 11:12:29;;;;;;;7.47;1.07;;;10.40;99.90;;;;;;4992607;28;20030;-55
2023/12/11 11:14:55;;;;;;;7.00;1.70;;;10.40;99.90;;;;;;5009025;28;20049;-55
2023/12/11 11:17:21;;;;;;;5.50;1.20;;;10.40;99.90;;;;;;5011959;28;20026;-51
2023/12/11 11:20:07;;;;;;;6.40;1.10;;;10.40;99.90;;;;;;5011879;28;20550;-55
2023/12/11 11:22:33;;;;;;;11.63;2.23;;;10.40;99.90;;;;;;5003908;28;20068;-54
2023/12/11 11:25:29;;;;;;;5.67;1.00;;;10.40;99.90;;;;;;5012186;28;20096;-53
2023/12/11 11:27:55;;;;;;;6.53;1.10;;;10.40;99.90;;;;;;5011460;28;20062;-52
2023/12/11 11:30:45;;;;;;;8.30;1.40;;;10.30;99.90;;;;;;5000092;28;20176;-51
2023/12/11 11:33:11;;;;;;;5.40;1.10;;;10.20;99.90;;;;;;5002445;28;20393;-52
2023/12/11 11:35:47;;;;;;;6.33;1.00;;;10.10;99.90;;;;;;5011692;28;20034;-52
2023/12/11 11:38:13;;;;;;;6.50;0.97;;;9.90;99.90;;;;;;5000860;28;20054;-53
2023/12/11 11:40:39;;;;;;;3.87;0.90;;;9.80;99.90;;;;;;4992082;28;20034;-49
2023/12/11 11:43:08;;;;;;;5.87;0.70;;;9.60;99.90;;;;;;5009338;28;20026;-53
2023/12/11 11:45:34;;;;;;;1.27;0.47;;;9.30;99.90;;;;;;4998205;28;20057;-51
2023/12/11 11:48:00;;;;;;;2.53;0.50;;;9.10;99.90;;;;;;4991993;28;20491;-50
2023/12/11 11:50:25;;;;;;;2.40;0.53;;;8.90;99.90;;;;;;4992231;28;20431;-51
2023/12/11 11:53:08;;;;;;;3.03;0.60;;;8.90;99.90;;;;;;5007408;28;20034;-52
2023/12/11 11:55:35;;;;;;;2.17;0.53;;;8.80;99.90;;;;;;5005174;28;20435;-50
2023/12/11 11:58:12;;;;;;;3.50;0.93;;;8.90;99.90;;;;;;5002183;28;20040;-50
2023/12/11 12:00:37;;;;;;;3.23;0.90;;;8.90;99.90;;;;;;4997461;28;20045;-55
2023/12/11 12:03:04;;;;;;;4.40;1.17;;;8.90;99.90;;;;;;5002940;28;20030;-53
2023/12/11 12:05:31;;;;;;;3.67;1.13;;;9.00;99.90;;;;;;5011485;28;20117;-52
2023/12/11 12:07:57;;;;;;;6.57;1.07;;;9.10;99.90;;;;;;5010814;28;20038;-50
2023/12/11 12:10:23;;;;;;;4.27;0.90;;;9.10;99.90;;;;;;5011471;28;20482;-52
2023/12/11 12:12:59;;;;;;;3.17;1.00;;;9.10;99.90;;;;;;5010823;28;20034;-52
2023/12/11 12:15:25;;;;;;;4.57;0.73;;;9.20;99.90;;;;;;4995202;28;20561;-52
2023/12/11 12:17:52;;;;;;;5.67;1.30;;;9.20;99.90;;;;;;5010829;28;20076;-51
2023/12/11 12:20:18;;;;;;;3.00;1.00;;;9.20;99.90;;;;;;4999543;28;20065;-54
2023/12/11 12:23:14;;;;;;;1.63;0.60;;;9.10;99.90;;;;;;4991370;28;20037;-51
2023/12/11 12:25:40;;;;;;;1.63;0.63;;;9.20;99.90;;;;;;4983027;28;20051;-52
2023/12/11 12:28:12;;;;;;;2.60;0.73;;;9.20;99.90;;;;;;4991054;28;20032;-52
2023/12/11 12:30:38;;;;;;;2.70;1.00;;;9.20;99.90;;;;;;4991331;28;20030;-53
2023/12/11 12:33:08;;;;;;;5.30;0.80;;;9.20;99.90;;;;;;4990998;28;20077;-55
2023/12/11 12:35:35;;;;;;;1.53;0.77;;;9.20;99.90;;;;;;4993013;28;20395;-53
2023/12/11 12:38:02;;;;;;;4.83;1.20;;;9.20;99.90;;;;;;5010044;28;20120;-51
2023/12/11 12:40:32;;;;;;;4.03;0.70;;;9.10;99.90;;;;;;4995010;28;20029;-53
2023/12/11 12:42:58;;;;;;;5.23;1.00;;;9.10;99.90;;;;;;5010482;28;20463;-52
2023/12/11 12:45:28;;;;;;;5.00;1.10;;;9.00;99.90;;;;;;4992781;28;20079;-52